Time;durP1;ratioP1;P1;durP2;ratioP2;P2;SDS_P1;SDS_P2;PMS_P1;PMS_P2;Temp;Humidity;BMP_temperature;BMP_pressure;BME280_temperature;BME280_humidity;BME280_pressure;Samples;Min_cycle;Max_cycle;Signal;HPM_P1;HPM_P2
2022/05/13 00:53:06;;;;;;;1.77;0.90;;;12.10;99.90;;;;;;503977;27;21120;-89
2022/05/13 01:03:51;;;;;;;3.63;1.10;;;12.10;99.90;;;;;;4794524;29;20054;-90
2022/05/13 01:07:08;;;;;;;2.70;1.33;;;12.10;99.90;;;;;;4783664;29;20181;-91
2022/05/13 01:10:16;;;;;;;5.65;1.60;;;12.10;99.90;;;;;;4795056;29;20059;-91
2022/05/13 01:13:09;;;;;;;2.90;1.13;;;12.20;99.90;;;;;;4750138;30;20091;-90
2022/05/13 01:15:46;;;;;;;1.98;1.10;;;12.00;99.90;;;;;;4745553;30;20422;-92
2022/05/13 01:18:34;;;;;;;3.28;1.50;;;12.20;99.90;;;;;;4752786;30;20571;-90
2022/05/13 01:21:36;;;;;;;4.90;1.05;;;12.10;99.90;;;;;;4752858;30;20098;-91
2022/05/13 01:24:31;;;;;;;;;;;;;;;;;;;;;
2022/05/13 01:27:44;;;;;;;7.65;1.02;;;12.10;99.90;;;;;;4679626;30;20065;-90
2022/05/13 01:30:34;;;;;;;2.13;0.93;;;12.20;99.90;;;;;;4665755;30;20124;-90
2022/05/13 01:33:21;;;;;;;4.80;1.02;;;12.10;99.90;;;;;;4679119;30;20053;-90
2022/05/13 01:49:31;;;;;;;2.90;1.00;;;12.20;99.90;;;;;;4699577;30;20054;-91
2022/05/13 01:52:35;;;;;;;3.60;1.10;;;11.90;99.90;;;;;;4715615;30;20057;-92
2022/05/13 01:55:45;;;;;;;;;;;;;;;;;;;;;
2022/05/13 01:58:41;;;;;;;5.93;1.08;;;12.20;99.90;;;;;;4663860;30;20571;-91
2022/05/13 02:01:40;;;;;;;3.03;1.10;;;12.20;99.90;;;;;;4665178;30;20575;-91
2022/05/13 02:04:12;;;;;;;6.45;1.23;;;12.20;99.90;;;;;;4617864;31;20132;-91
2022/05/13 02:07:10;;;;;;;5.40;1.10;;;12.50;99.90;;;;;;4628735;31;20060;-91
2022/05/13 02:10:18;;;;;;;6.43;1.67;;;12.20;99.90;;;;;;4630176;31;20063;-91
2022/05/13 02:16:49;;;;;;;3.58;1.00;;;12.30;99.90;;;;;;4595745;31;20053;-92
2022/05/13 02:23:46;;;;;;;5.70;1.23;;;12.20;99.90;;;;;;4675652;24;20055;-91
2022/05/13 02:34:04;;;;;;;;;;;;;;;;;;;;;
2022/05/13 02:36:58;;;;;;;6.93;1.73;;;12.20;99.90;;;;;;4647040;30;20588;-91
2022/05/13 02:54:44;;;;;;;5.57;1.60;;;11.80;99.90;;;;;;4758500;24;20063;-92
2022/05/13 02:57:38;;;;;;;8.35;1.83;;;12.20;99.90;;;;;;4757648;30;20044;-92
2022/05/13 03:07:27;;;;;;;6.43;1.55;;;12.20;99.90;;;;;;4651187;30;20082;-91
2022/05/13 03:10:12;;;;;;;;;;;;;;;;;;;;;
2022/05/13 03:13:10;;;;;;;;;;;;;;;;;;;;;
2022/05/13 03:16:02;;;;;;;5.35;1.55;;;12.50;99.90;;;;;;4651130;30;20074;-91
2022/05/13 03:24:18;;;;;;;11.40;2.05;;;12.20;99.90;;;;;;4804093;29;20071;-89
2022/05/13 03:27:48;;;;;;;6.32;1.30;;;12.20;99.90;;;;;;4812772;29;20505;-88
2022/05/13 03:37:32;;;;;;;4.35;1.77;;;12.20;99.90;;;;;;4730197;30;20617;-92
2022/05/13 04:36:32;;;;;;;6.82;1.70;;;12.30;99.90;;;;;;4733463;30;20632;-90
2022/05/13 04:39:25;;;;;;;;;;;;;;;;;;;;;
2022/05/13 04:52:44;;;;;;;8.82;1.45;;;12.20;99.90;;;;;;4655268;30;20081;-89
2022/05/13 04:55:40;;;;;;;3.08;0.90;;;12.20;99.90;;;;;;4629334;30;20075;-89
2022/05/13 06:17:57;;;;;;;1.23;0.50;;;13.30;99.90;;;;;;1695081;24;20398;-85
2022/05/13 06:20:30;;;;;;;2.75;0.70;;;13.20;99.90;;;;;;4756374;30;20051;-88
2022/05/13 06:26:40;;;;;;;2.55;0.68;;;13.20;99.90;;;;;;4760747;30;20485;-89
2022/05/13 06:29:23;;;;;;;2.38;0.55;;;13.30;99.90;;;;;;4767488;30;20055;-88
2022/05/13 06:32:24;;;;;;;2.55;0.43;;;13.30;99.90;;;;;;4757283;30;20087;-88
2022/05/13 06:35:53;;;;;;;2.28;0.73;;;12.60;99.90;;;;;;4756189;30;20133;-91
2022/05/13 06:38:43;;;;;;;2.78;0.90;;;13.50;99.90;;;;;;4721011;30;20130;-89
2022/05/13 06:44:31;;;;;;;2.30;0.57;;;13.70;99.90;;;;;;4717984;30;20435;-87
2022/05/13 06:46:57;;;;;;;2.53;0.55;;;13.70;99.90;;;;;;4735341;30;20549;-90
2022/05/13 06:55:10;;;;;;;2.50;0.70;;;14.00;99.90;;;;;;4821052;24;20051;-90
2022/05/13 06:57:41;;;;;;;4.40;0.70;;;13.90;99.90;;;;;;4885089;24;20071;-88
2022/05/13 07:10:30;;;;;;;5.25;1.65;;;14.60;99.90;;;;;;5031626;24;20062;-88
2022/05/13 07:12:39;;;;;;;5.97;0.90;;;14.70;99.90;;;;;;4764891;30;20059;-93
2022/05/13 07:18:55;;;;;;;8.93;0.90;;;14.60;99.90;;;;;;4768521;30;20055;-89
2022/05/13 07:21:30;;;;;;;5.03;0.70;;;14.70;99.90;;;;;;4749353;30;20059;-89
2022/05/13 07:23:56;;;;;;;3.50;0.80;;;14.60;99.90;;;;;;4771862;30;20530;-87
2022/05/13 07:26:22;;;;;;;3.38;0.60;;;14.90;99.90;;;;;;4755706;30;20098;-88
2022/05/13 07:29:14;;;;;;;8.57;1.50;;;14.70;99.90;;;;;;4756554;30;20079;-89
2022/05/13 07:31:40;;;;;;;4.05;0.75;;;15.20;99.90;;;;;;4762370;30;20107;-87
2022/05/13 07:34:06;;;;;;;2.53;0.93;;;15.20;99.90;;;;;;4771056;30;20539;-87
2022/05/13 07:36:32;;;;;;;3.53;0.75;;;15.40;99.90;;;;;;4755907;30;20060;-87
2022/05/13 07:41:42;;;;;;;2.05;0.90;;;15.80;99.90;;;;;;4765930;30;20056;-87
2022/05/13 07:44:08;;;;;;;3.70;0.60;;;15.90;99.90;;;;;;4754887;30;20387;-88
2022/05/13 07:46:34;;;;;;;4.18;0.50;;;15.90;99.90;;;;;;4771392;30;20087;-86
2022/05/13 07:49:00;;;;;;;1.63;0.57;;;15.80;99.90;;;;;;4771531;30;20048;-87
2022/05/13 07:51:31;;;;;;;3.22;0.60;;;16.10;99.90;;;;;;4755898;30;20055;-87
2022/05/13 07:54:37;;;;;;;1.85;0.50;;;16.10;99.90;;;;;;4771517;30;20143;-88
2022/05/13 07:57:12;;;;;;;2.50;0.93;;;16.10;99.90;;;;;;4755889;30;20098;-87
2022/05/13 08:02:23;;;;;;;2.00;0.47;;;16.50;99.90;;;;;;4755344;30;20052;-89
2022/05/13 08:04:48;;;;;;;4.05;0.63;;;16.60;99.90;;;;;;4755607;30;20072;-88
2022/05/13 08:07:18;;;;;;;3.10;0.82;;;16.50;99.90;;;;;;4740484;30;20134;-88
2022/05/13 08:09:43;;;;;;;3.13;0.52;;;16.50;99.90;;;;;;4755528;30;20102;-90
2022/05/13 08:12:10;;;;;;;2.40;0.45;;;16.40;99.90;;;;;;4788208;29;20091;-89
2022/05/13 08:14:35;;;;;;;2.45;0.40;;;16.60;99.90;;;;;;4789073;29;20124;-87
2022/05/13 08:17:08;;;;;;;2.15;0.60;;;16.70;99.90;;;;;;4772517;30;20091;-88
2022/05/13 08:19:34;;;;;;;3.10;0.60;;;16.90;99.90;;;;;;4772775;30;20066;-88
2022/05/13 08:22:00;;;;;;;1.92;0.40;;;17.00;99.90;;;;;;4773179;30;20106;-88
2022/05/13 08:24:26;;;;;;;3.50;0.70;;;17.00;99.90;;;;;;4773213;30;20055;-88
2022/05/13 08:26:52;;;;;;;2.78;0.70;;;16.80;99.90;;;;;;4788999;30;20047;-88
2022/05/13 08:29:21;;;;;;;3.70;0.55;;;16.80;99.90;;;;;;4773181;30;20475;-89
2022/05/13 08:31:47;;;;;;;4.00;0.50;;;16.90;99.90;;;;;;4773012;30;20047;-89
2022/05/13 08:34:14;;;;;;;4.38;0.70;;;16.60;99.90;;;;;;4772942;30;20059;-88
2022/05/13 08:36:43;;;;;;;2.15;0.40;;;16.40;99.90;;;;;;4789519;30;20056;-89
2022/05/13 08:39:10;;;;;;;3.80;0.57;;;16.30;99.90;;;;;;4789050;30;20059;-89
2022/05/13 08:41:54;;;;;;;2.90;0.63;;;16.30;99.90;;;;;;4773288;30;20086;-89
2022/05/13 08:48:20;;;;;;;1.58;0.50;;;17.00;99.90;;;;;;4789237;30;20184;-89
2022/05/13 08:51:21;;;;;;;3.58;0.55;;;16.70;99.90;;;;;;4783416;30;20059;-88
2022/05/13 08:54:05;;;;;;;1.90;0.40;;;16.60;99.90;;;;;;4775746;30;20097;-88
2022/05/13 08:56:35;;;;;;;0.82;0.30;;;16.50;99.90;;;;;;4772778;30;20066;-88
2022/05/13 08:59:33;;;;;;;2.90;0.47;;;16.70;99.90;;;;;;4772880;30;20055;-88
2022/05/13 09:02:18;;;;;;;1.83;0.50;;;17.00;99.90;;;;;;4733278;30;20205;-88
2022/05/13 09:05:00;;;;;;;2.65;0.40;;;17.30;99.90;;;;;;4719134;30;20073;-88
2022/05/13 09:07:29;;;;;;;5.85;0.60;;;17.60;99.90;;;;;;4719186;30;20498;-87
2022/05/13 09:10:00;;;;;;;2.47;0.50;;;17.70;99.90;;;;;;4718601;30;20070;-89
2022/05/13 09:13:23;;;;;;;3.90;0.57;;;17.70;99.90;;;;;;4718628;30;20529;-88
2022/05/13 09:16:05;;;;;;;4.22;0.40;;;17.40;99.90;;;;;;4681109;30;20066;-89
2022/05/13 09:18:48;;;;;;;2.20;0.50;;;17.10;99.90;;;;;;4666464;30;20069;-88
2022/05/13 09:21:19;;;;;;;3.38;0.50;;;17.10;99.90;;;;;;4666669;30;20528;-88
2022/05/13 09:23:45;;;;;;;2.65;0.30;;;17.20;99.90;;;;;;4680527;30;20061;-87
2022/05/13 09:26:21;;;;;;;2.97;0.52;;;17.40;99.90;;;;;;4666480;30;20065;-88
2022/05/13 09:29:11;;;;;;;1.42;0.30;;;17.60;99.90;;;;;;4666737;30;20069;-87
2022/05/13 09:31:52;;;;;;;2.92;0.47;;;17.50;99.90;;;;;;4666948;30;20072;-89
2022/05/13 09:34:27;;;;;;;3.38;0.40;;;17.40;99.90;;;;;;4681014;30;20651;-89
2022/05/13 09:37:03;;;;;;;2.63;0.55;;;17.40;99.90;;;;;;4681486;30;20148;-87
2022/05/13 09:39:36;;;;;;;1.95;0.30;;;17.50;99.90;;;;;;4708591;30;20057;-88
2022/05/13 09:42:26;;;;;;;2.08;0.40;;;17.40;99.90;;;;;;4715363;30;20057;-87
2022/05/13 09:45:17;;;;;;;3.28;0.80;;;17.30;99.90;;;;;;4700751;30;20092;-88
2022/05/13 09:47:46;;;;;;;3.35;0.32;;;17.20;99.90;;;;;;4773234;30;20059;-89
2022/05/13 09:50:31;;;;;;;1.95;0.43;;;17.10;99.90;;;;;;4773287;30;20063;-87
2022/05/13 09:53:24;;;;;;;1.85;0.32;;;17.00;99.90;;;;;;4789379;30;20085;-88
2022/05/13 09:56:01;;;;;;;2.15;0.40;;;16.80;99.90;;;;;;4773235;30;20059;-88
2022/05/13 09:58:32;;;;;;;3.60;0.30;;;16.80;99.90;;;;;;4772465;30;20047;-87
2022/05/13 10:01:09;;;;;;;0.88;0.30;;;16.70;99.90;;;;;;4771895;30;20262;-88
2022/05/13 10:03:38;;;;;;;2.03;0.50;;;16.70;99.90;;;;;;4787785;30;20051;-88
2022/05/13 10:06:13;;;;;;;2.47;0.80;;;16.60;99.90;;;;;;4757088;30;20067;-88
2022/05/13 10:08:51;;;;;;;4.32;0.50;;;16.80;99.90;;;;;;4787720;30;20059;-88
2022/05/13 10:14:35;;;;;;;5.22;0.55;;;17.10;99.90;;;;;;4771529;30;20573;-87
2022/05/13 10:17:18;;;;;;;2.50;0.50;;;17.20;99.90;;;;;;4717686;30;20103;-86
2022/05/13 10:19:55;;;;;;;3.20;0.43;;;17.50;99.90;;;;;;4717542;30;20100;-87
2022/05/13 10:22:46;;;;;;;1.05;0.28;;;17.80;99.90;;;;;;4717715;30;20142;-88
2022/05/13 10:25:20;;;;;;;3.92;0.88;;;18.10;99.90;;;;;;4717653;30;20064;-88
2022/05/13 10:27:54;;;;;;;1.77;0.70;;;18.40;99.90;;;;;;4732004;30;20557;-90
2022/05/13 10:30:37;;;;;;;4.53;0.50;;;18.80;99.90;;;;;;4717764;30;20056;-89
2022/05/13 10:33:11;;;;;;;2.42;0.50;;;19.20;99.90;;;;;;4732182;30;20287;-88
2022/05/13 10:35:50;;;;;;;3.53;0.45;;;19.20;99.90;;;;;;4734158;30;20065;-87
2022/05/13 10:38:29;;;;;;;1.75;0.40;;;19.50;99.90;;;;;;4706091;30;20064;-88
2022/05/13 10:41:03;;;;;;;2.25;0.50;;;19.80;99.90;;;;;;4735359;30;20206;-88
2022/05/13 10:43:54;;;;;;;1.88;0.47;;;19.90;99.90;;;;;;4720881;30;20076;-88
2022/05/13 10:46:25;;;;;;;3.20;0.45;;;19.90;99.90;;;;;;4720456;30;20304;-87
2022/05/13 10:48:53;;;;;;;1.48;0.47;;;19.70;99.90;;;;;;4720611;30;20073;-88
2022/05/13 10:52:04;;;;;;;1.52;0.40;;;19.50;99.90;;;;;;4720567;30;20098;-87
2022/05/13 10:54:45;;;;;;;4.75;0.75;;;19.60;99.90;;;;;;4693212;30;20119;-87
2022/05/13 10:57:34;;;;;;;2.50;0.40;;;19.60;99.90;;;;;;4717351;30;20057;-87
2022/05/13 11:00:12;;;;;;;2.42;0.50;;;19.50;99.90;;;;;;4703337;30;20057;-87
2022/05/13 11:02:49;;;;;;;4.93;1.20;;;19.40;99.90;;;;;;4703192;30;20068;-88
2022/05/13 11:05:53;;;;;;;1.55;0.40;;;19.20;99.90;;;;;;4702512;30;20057;-89
2022/05/13 11:08:42;;;;;;;1.65;0.50;;;19.10;99.90;;;;;;4703223;30;20152;-87
2022/05/13 11:11:54;;;;;;;2.53;0.30;;;19.10;99.90;;;;;;4688616;30;20053;-88
2022/05/13 11:14:43;;;;;;;3.03;0.40;;;19.00;99.90;;;;;;4716882;30;20096;-89
2022/05/13 11:17:40;;;;;;;2.47;0.55;;;18.70;99.90;;;;;;4703517;30;20597;-87
2022/05/13 11:20:27;;;;;;;5.05;0.60;;;18.50;99.90;;;;;;4734427;30;20052;-88
2022/05/13 11:23:36;;;;;;;2.97;0.55;;;18.80;99.90;;;;;;4732838;30;20431;-91
2022/05/13 11:26:16;;;;;;;6.03;0.60;;;18.40;99.90;;;;;;4784182;29;20066;-88
2022/05/13 11:36:22;;;;;;;4.88;0.55;;;18.20;99.90;;;;;;4790313;29;20120;-86
2022/05/13 11:39:44;;;;;;;1.98;0.43;;;18.30;99.90;;;;;;4780575;30;20119;-88
2022/05/13 11:42:21;;;;;;;3.88;0.80;;;18.40;99.90;;;;;;4719781;30;20526;-88
2022/05/13 11:45:13;;;;;;;2.47;0.40;;;18.40;99.90;;;;;;4734268;30;20300;-87
2022/05/13 11:48:14;;;;;;;2.70;0.60;;;18.20;99.90;;;;;;4695666;30;20057;-88
2022/05/13 11:50:40;;;;;;;7.50;0.80;;;18.20;99.90;;;;;;4687757;30;20069;-86
2022/05/13 11:53:05;;;;;;;9.38;1.00;;;18.20;99.90;;;;;;4700081;30;20049;-88
2022/05/13 11:55:45;;;;;;;2.60;0.30;;;18.10;99.90;;;;;;4684486;30;20428;-89
2022/05/13 11:58:44;;;;;;;3.65;0.50;;;17.90;99.90;;;;;;4699619;30;20479;-87
2022/05/13 12:01:10;;;;;;;2.15;0.50;;;17.60;99.90;;;;;;4699066;30;20066;-89
2022/05/13 12:03:38;;;;;;;6.03;0.50;;;17.60;99.90;;;;;;4699433;30;20057;-88
2022/05/13 12:06:11;;;;;;;5.18;0.60;;;17.60;99.90;;;;;;4699555;30;20586;-88
2022/05/13 12:08:40;;;;;;;2.83;0.55;;;17.70;99.90;;;;;;4700031;30;20525;-88
2022/05/13 12:11:42;;;;;;;2.30;0.60;;;17.70;99.90;;;;;;4690783;30;20118;-88
2022/05/13 12:14:32;;;;;;;5.30;1.23;;;18.00;99.90;;;;;;4691535;30;20472;-89
2022/05/13 12:17:16;;;;;;;2.50;0.60;;;18.30;99.90;;;;;;4726452;30;20064;-89
2022/05/13 12:19:55;;;;;;;2.25;0.70;;;18.20;99.90;;;;;;4712210;30;20056;-88
2022/05/13 12:22:30;;;;;;;2.95;0.60;;;18.30;99.90;;;;;;4717439;30;20110;-88
2022/05/13 12:25:09;;;;;;;3.10;0.40;;;18.20;99.90;;;;;;4771340;29;20192;-93
2022/05/13 12:27:46;;;;;;;3.15;0.50;;;18.10;99.90;;;;;;4782124;29;20063;-88
2022/05/13 12:30:30;;;;;;;2.25;0.60;;;18.10;99.90;;;;;;4780908;30;20127;-89
2022/05/13 12:33:17;;;;;;;2.10;0.30;;;18.40;99.90;;;;;;4773198;30;20058;-88
2022/05/13 12:38:49;;;;;;;2.65;0.43;;;19.00;99.90;;;;;;4772007;30;20067;-89
2022/05/13 12:41:21;;;;;;;5.18;0.63;;;19.10;99.90;;;;;;4787503;29;20063;-88
2022/05/13 12:44:08;;;;;;;2.60;0.55;;;19.20;99.90;;;;;;4778696;30;20062;-86
2022/05/13 12:46:49;;;;;;;2.53;0.52;;;19.50;99.90;;;;;;4771368;30;20058;-88
2022/05/13 12:49:44;;;;;;;2.00;0.30;;;19.40;99.30;;;;;;4771896;30;20152;-86
2022/05/13 12:52:36;;;;;;;2.70;0.40;;;19.60;99.40;;;;;;4775242;29;20078;-92
2022/05/13 12:55:08;;;;;;;3.88;0.45;;;19.80;98.50;;;;;;4783195;29;20135;-90
2022/05/13 12:57:43;;;;;;;6.25;0.70;;;19.90;98.30;;;;;;4787761;29;20050;-90
2022/05/13 13:00:23;;;;;;;5.13;0.63;;;19.90;98.10;;;;;;4789886;29;20070;-88
2022/05/13 13:02:53;;;;;;;1.75;0.52;;;20.00;97.90;;;;;;4781398;30;20091;-89
2022/05/13 13:05:24;;;;;;;1.80;0.40;;;20.20;98.40;;;;;;4771768;30;20172;-89
2022/05/13 13:08:04;;;;;;;3.30;0.50;;;20.20;98.10;;;;;;4765204;30;20117;-87
2022/05/13 13:10:30;;;;;;;3.20;0.43;;;20.40;98.30;;;;;;4777501;29;20142;-88
2022/05/13 13:13:11;;;;;;;4.45;0.50;;;20.50;96.40;;;;;;4791116;29;20066;-88
2022/05/13 13:24:25;;;;;;;2.70;0.70;;;21.10;94.80;;;;;;4764967;30;20086;-89
2022/05/13 13:26:52;;;;;;;2.85;0.65;;;21.20;93.30;;;;;;4771465;30;20067;-88
2022/05/13 13:29:46;;;;;;;2.20;0.50;;;21.10;92.50;;;;;;4770224;30;20094;-88
2022/05/13 13:32:16;;;;;;;2.53;0.32;;;20.80;91.40;;;;;;4779539;30;20087;-89
2022/05/13 13:34:59;;;;;;;2.20;0.50;;;20.60;93.20;;;;;;4756218;30;20483;-89
2022/05/13 13:37:35;;;;;;;1.33;0.45;;;20.60;94.20;;;;;;4779845;30;20047;-89
2022/05/13 13:40:15;;;;;;;1.17;0.30;;;20.40;92.40;;;;;;4762409;30;20090;-88
2022/05/13 13:42:42;;;;;;;5.70;0.50;;;20.40;92.40;;;;;;4767522;30;20062;-89
2022/05/13 13:45:13;;;;;;;1.50;0.52;;;20.20;93.60;;;;;;4775143;29;20137;-89
2022/05/13 13:47:50;;;;;;;2.65;0.60;;;20.10;92.90;;;;;;4781710;29;20059;-91
2022/05/13 13:50:32;;;;;;;4.15;0.65;;;19.80;93.50;;;;;;4791214;29;20500;-90
2022/05/13 13:52:58;;;;;;;5.25;0.65;;;19.50;93.50;;;;;;4770383;30;20126;-88
2022/05/13 13:55:29;;;;;;;1.98;0.43;;;19.40;93.10;;;;;;4770886;30;20051;-88
2022/05/13 13:58:20;;;;;;;2.17;0.63;;;19.30;95.00;;;;;;4789320;29;20055;-89
2022/05/13 14:00:48;;;;;;;2.92;0.50;;;19.30;94.40;;;;;;4771967;29;20063;-88
2022/05/13 14:03:18;;;;;;;7.13;0.57;;;19.10;95.30;;;;;;4757251;30;20083;-89
2022/05/13 14:05:52;;;;;;;4.10;0.60;;;19.00;95.90;;;;;;4777867;24;20112;-91
2022/05/13 14:08:18;;;;;;;4.68;0.40;;;18.90;96.80;;;;;;4770470;29;20078;-89
2022/05/13 14:11:36;;;;;;;;;;;;;;;;;;;;;
2022/05/13 14:21:28;;;;;;;3.53;0.60;;;19.20;96.60;;;;;;4789505;29;20059;-90
2022/05/13 14:24:38;;;;;;;2.40;0.60;;;19.00;96.90;;;;;;4779981;29;20054;-92
2022/05/13 14:57:08;;;;;;;3.42;0.45;;;21.10;92.80;;;;;;5042902;24;20060;-90
2022/05/13 15:02:12;;;;;;;3.95;0.43;;;21.00;92.50;;;;;;4779707;24;20039;-88
2022/05/13 15:05:26;;;;;;;2.22;0.40;;;20.90;92.10;;;;;;4777382;30;20087;-91
2022/05/13 15:08:00;;;;;;;7.25;0.80;;;21.00;93.20;;;;;;4693242;30;20664;-92
2022/05/13 15:11:20;;;;;;;;;;;;;;;;;;;;;
2022/05/13 15:14:10;;;;;;;1.70;0.40;;;21.40;92.30;;;;;;4701130;30;20057;-91
2022/05/13 15:16:38;;;;;;;3.40;0.80;;;21.30;91.00;;;;;;4724144;30;20060;-91
2022/05/13 15:23:26;;;;;;;;;;;;;;;;;;;;;
2022/05/13 15:26:02;;;;;;;3.80;0.40;;;21.10;89.60;;;;;;4630652;30;20059;-89
2022/05/13 15:28:35;;;;;;;3.00;0.50;;;21.00;91.00;;;;;;4631493;30;20055;-90
2022/05/13 15:38:09;;;;;;;4.47;0.63;;;20.50;90.70;;;;;;4731923;30;20122;-90
2022/05/13 15:46:11;;;;;;;3.75;0.50;;;20.00;92.50;;;;;;4768298;30;19933;-93
2022/05/13 15:48:39;;;;;;;3.95;0.65;;;20.00;91.70;;;;;;4757935;30;20062;-90
2022/05/13 15:57:23;;;;;;;6.30;0.75;;;19.60;93.20;;;;;;4829814;24;20141;-92
2022/05/13 16:00:45;;;;;;;;;;;;;;;;;;;;;
2022/05/13 16:11:09;;;;;;;;;;;19.30;94.10;;;;;;5060610;24;20096;-89
2022/05/13 16:16:56;;;;;;;3.70;0.50;;;19.20;93.80;;;;;;4349266;27;20059;-88
2022/05/13 16:19:28;;;;;;;3.88;0.55;;;19.20;94.20;;;;;;4763614;30;20060;-90
2022/05/13 16:22:09;;;;;;;3.42;0.73;;;19.00;94.00;;;;;;4796423;24;20145;-88
2022/05/13 16:24:39;;;;;;;3.25;0.50;;;18.90;94.70;;;;;;4772528;30;20506;-87
2022/05/13 16:27:56;;;;;;;3.08;0.50;;;19.00;95.10;;;;;;4764099;30;20090;-91
2022/05/13 16:30:22;;;;;;;;;;;18.90;95.30;;;;;;4720775;30;20503;-89
2022/05/13 16:32:47;;;;;;;;;;;18.80;95.40;;;;;;4733038;30;19922;-91
2022/05/13 16:35:13;;;;;;;3.17;0.60;;;18.70;95.70;;;;;;4762264;24;19934;-91
2022/05/13 16:37:42;;;;;;;3.40;1.00;;;18.50;95.90;;;;;;4756209;30;20448;-93
2022/05/13 16:40:10;;;;;;;6.55;0.73;;;18.40;96.80;;;;;;4776012;30;20567;-88
2022/05/13 16:42:37;;;;;;;6.82;0.90;;;18.40;96.90;;;;;;4771792;30;20056;-88
2022/05/13 16:45:06;;;;;;;2.38;0.57;;;18.30;97.20;;;;;;4772650;30;20101;-90
2022/05/13 16:51:13;;;;;;;3.88;1.00;;;18.20;98.00;;;;;;4784618;30;20046;-88
2022/05/13 16:53:42;;;;;;;4.18;0.52;;;18.20;97.80;;;;;;4787485;30;20047;-91
2022/05/13 16:56:08;;;;;;;4.15;0.60;;;18.10;97.70;;;;;;4756408;30;20394;-90
2022/05/13 16:58:40;;;;;;;2.90;0.73;;;18.00;97.60;;;;;;4790187;30;20063;-90
2022/05/13 17:01:06;;;;;;;3.60;0.70;;;17.90;97.40;;;;;;4772979;30;20054;-88
2022/05/13 17:03:34;;;;;;;2.88;0.80;;;17.90;97.70;;;;;;4779035;29;20207;-90
2022/05/13 17:06:02;;;;;;;3.03;0.40;;;17.80;98.10;;;;;;4772349;30;20055;-90
2022/05/13 17:16:12;;;;;;;2.17;0.70;;;17.70;98.80;;;;;;4767352;30;20050;-89
2022/05/13 17:17:00;;;;;;;4.28;0.50;;;17.50;99.20;;;;;;4789233;29;20520;-91
2022/05/13 17:19:26;;;;;;;1.25;0.50;;;17.60;99.90;;;;;;4772552;30;20050;-91
2022/05/13 17:21:54;;;;;;;5.65;0.90;;;17.50;99.90;;;;;;4779551;30;20091;-86
2022/05/13 17:24:35;;;;;;;4.65;0.93;;;17.50;99.90;;;;;;4771681;30;20577;-87
2022/05/13 17:27:14;;;;;;;3.10;0.70;;;17.40;99.90;;;;;;4777315;30;20134;-89
2022/05/13 17:29:41;;;;;;;5.03;0.70;;;17.40;99.90;;;;;;4787479;30;20051;-85
2022/05/13 17:32:08;;;;;;;4.30;0.50;;;17.40;99.90;;;;;;4771571;30;20482;-89
2022/05/13 17:35:01;;;;;;;4.18;0.77;;;17.30;99.90;;;;;;4794098;29;20480;-89
2022/05/13 17:37:48;;;;;;;4.47;1.02;;;17.30;99.90;;;;;;4784968;29;20095;-90
2022/05/13 17:42:41;;;;;;;3.78;0.70;;;17.20;99.90;;;;;;4799302;24;20524;-88
2022/05/13 17:45:15;;;;;;;4.50;0.60;;;17.10;99.90;;;;;;4787453;30;20120;-91
2022/05/13 17:47:42;;;;;;;3.55;0.70;;;17.10;99.90;;;;;;4787380;30;20062;-92
2022/05/13 17:50:17;;;;;;;3.88;0.90;;;17.10;99.90;;;;;;4788594;30;20124;-89
2022/05/13 17:52:57;;;;;;;6.53;0.80;;;17.00;99.90;;;;;;4750686;30;20127;-90
2022/05/13 17:55:26;;;;;;;3.17;0.75;;;17.10;99.90;;;;;;4740110;30;20090;-88
2022/05/13 17:57:52;;;;;;;2.63;1.10;;;16.80;99.90;;;;;;4741881;30;20077;-87
2022/05/13 18:03:59;;;;;;;2.30;0.63;;;16.70;99.90;;;;;;4767614;24;20124;-89
2022/05/13 18:06:25;;;;;;;2.72;0.63;;;16.50;99.90;;;;;;4771321;30;20059;-89
2022/05/13 18:08:51;;;;;;;6.35;1.45;;;16.50;99.90;;;;;;4787123;29;20673;-89
2022/05/13 18:11:17;;;;;;;4.05;0.80;;;16.40;99.90;;;;;;4788064;29;20202;-88
2022/05/13 18:13:43;;;;;;;3.20;0.90;;;16.40;99.90;;;;;;4764350;30;20056;-88
2022/05/13 18:16:09;;;;;;;7.15;1.63;;;16.30;99.90;;;;;;4770894;30;20517;-87
2022/05/13 18:18:50;;;;;;;4.78;0.93;;;16.30;99.90;;;;;;4771429;29;20047;-89
2022/05/13 18:21:21;;;;;;;4.38;0.80;;;16.30;99.90;;;;;;4778244;29;20150;-87
2022/05/13 18:23:54;;;;;;;1.45;0.50;;;16.20;99.90;;;;;;4770902;30;20556;-86
2022/05/13 18:26:24;;;;;;;3.35;0.82;;;16.20;99.90;;;;;;4770608;30;20521;-88
2022/05/13 18:28:50;;;;;;;6.15;0.80;;;16.00;99.90;;;;;;4756242;30;20148;-89
2022/05/13 18:31:16;;;;;;;4.03;0.70;;;16.10;99.90;;;;;;4786232;29;20185;-88
2022/05/13 18:33:41;;;;;;;2.65;0.88;;;16.00;99.90;;;;;;4786956;30;20131;-87
2022/05/13 18:36:07;;;;;;;3.17;0.82;;;16.00;99.90;;;;;;4771188;30;20564;-88
2022/05/13 18:38:34;;;;;;;3.80;1.25;;;15.90;99.90;;;;;;4786786;30;20488;-88
2022/05/13 18:46:38;;;;;;;3.72;1.02;;;15.60;99.90;;;;;;4770331;30;20090;-88
2022/05/13 18:49:33;;;;;;;4.72;1.17;;;15.60;99.90;;;;;;4771330;30;20532;-89
2022/05/13 18:52:01;;;;;;;5.63;1.30;;;15.50;99.90;;;;;;4774158;29;20055;-89
2022/05/13 18:54:30;;;;;;;7.32;1.65;;;15.40;99.90;;;;;;4759543;29;20055;-89
2022/05/13 18:56:57;;;;;;;2.72;0.80;;;15.30;99.90;;;;;;4774264;30;20063;-91
2022/05/13 18:59:26;;;;;;;5.18;1.13;;;15.20;99.90;;;;;;4790462;30;20085;-90
2022/05/13 19:01:52;;;;;;;4.93;1.08;;;15.10;99.90;;;;;;4774381;29;20059;-92
2022/05/13 19:04:21;;;;;;;3.78;0.90;;;15.10;99.90;;;;;;4764791;30;20116;-88
2022/05/13 19:06:48;;;;;;;6.40;2.00;;;15.00;99.90;;;;;;4788969;29;20067;-90
2022/05/13 19:09:14;;;;;;;2.80;0.90;;;14.90;99.90;;;;;;4776986;29;20047;-86
2022/05/13 19:11:40;;;;;;;5.65;1.30;;;14.80;99.90;;;;;;4792610;29;20055;-87
2022/05/13 19:14:06;;;;;;;4.10;1.00;;;14.70;99.90;;;;;;4774093;30;20093;-87
2022/05/13 19:16:34;;;;;;;3.92;0.90;;;14.60;99.90;;;;;;4774174;30;20051;-89
2022/05/13 19:19:02;;;;;;;4.22;0.80;;;14.50;99.90;;;;;;4772557;30;20552;-86
2022/05/13 19:21:30;;;;;;;3.50;1.10;;;14.50;99.90;;;;;;4775595;29;20043;-87
2022/05/13 19:24:00;;;;;;;4.05;1.10;;;14.40;99.90;;;;;;4795132;29;20078;-90
2022/05/13 19:26:40;;;;;;;3.95;1.00;;;14.30;99.90;;;;;;4779349;30;20581;-90
2022/05/13 19:29:29;;;;;;;2.80;1.25;;;14.60;99.90;;;;;;4774104;30;20082;-89
2022/05/13 19:31:54;;;;;;;3.28;1.00;;;14.30;99.90;;;;;;4782799;30;20066;-89
2022/05/13 19:34:19;;;;;;;2.45;1.05;;;14.20;99.90;;;;;;4772345;30;20063;-89
2022/05/13 19:36:48;;;;;;;3.38;0.98;;;14.10;99.90;;;;;;4773573;30;20521;-89
2022/05/13 19:39:14;;;;;;;2.92;1.23;;;14.10;99.90;;;;;;4772918;30;20051;-89
2022/05/13 19:44:41;;;;;;;5.35;1.42;;;14.00;99.90;;;;;;4702175;30;20065;-88
2022/05/13 19:47:10;;;;;;;10.73;2.17;;;13.90;99.90;;;;;;4715736;30;20076;-88
2022/05/13 19:49:39;;;;;;;8.65;1.98;;;13.80;99.90;;;;;;4702328;30;20060;-89
2022/05/13 19:52:05;;;;;;;3.90;1.58;;;13.80;99.90;;;;;;4701633;30;20553;-90
2022/05/13 19:54:32;;;;;;;3.78;1.55;;;13.70;99.90;;;;;;4715772;30;20096;-88
2022/05/13 19:56:58;;;;;;;6.32;1.52;;;13.70;99.90;;;;;;4709067;30;20509;-89
2022/05/13 19:59:25;;;;;;;3.97;1.23;;;13.60;99.90;;;;;;4702092;30;20100;-89
2022/05/13 20:01:52;;;;;;;6.53;1.95;;;13.60;99.90;;;;;;4715737;30;20117;-88
2022/05/13 20:04:19;;;;;;;4.63;1.30;;;13.60;99.90;;;;;;4701581;30;20401;-89
2022/05/13 20:12:14;;;;;;;6.18;1.60;;;13.50;99.90;;;;;;4701488;30;20132;-87
2022/05/13 20:14:39;;;;;;;5.18;1.20;;;13.50;99.90;;;;;;4721142;30;20457;-93
2022/05/13 20:17:09;;;;;;;2.88;1.10;;;13.20;99.90;;;;;;4770868;29;20521;-87
2022/05/13 20:22:59;;;;;;;3.17;1.20;;;13.50;99.90;;;;;;4778277;30;20405;-90
2022/05/13 20:25:06;;;;;;;6.18;1.60;;;13.40;99.90;;;;;;4770381;30;19925;-89
2022/05/13 20:27:32;;;;;;;4.25;1.27;;;13.40;99.90;;;;;;4760505;29;20070;-89
2022/05/13 20:29:58;;;;;;;2.53;1.10;;;13.30;99.90;;;;;;4776600;30;20059;-88
2022/05/13 20:32:26;;;;;;;4.07;1.17;;;13.50;99.90;;;;;;4780468;29;20447;-88
2022/05/13 20:34:52;;;;;;;5.07;1.10;;;13.30;99.90;;;;;;4777288;30;20501;-89
2022/05/13 20:37:18;;;;;;;4.53;1.70;;;13.30;99.90;;;;;;4772285;29;20080;-89
2022/05/13 20:39:44;;;;;;;8.93;1.95;;;13.20;99.90;;;;;;4779914;30;20138;-89
2022/05/13 20:42:11;;;;;;;6.75;1.70;;;13.30;99.90;;;;;;4772089;30;20061;-89
2022/05/13 20:44:36;;;;;;;3.38;1.50;;;13.10;99.90;;;;;;4779923;30;20059;-90
2022/05/13 20:50:46;;;;;;;3.38;1.50;;;13.10;99.90;;;;;;4791705;30;20095;-88
2022/05/13 20:53:12;;;;;;;3.30;1.20;;;13.10;99.90;;;;;;4802683;30;20065;-88
2022/05/13 20:55:38;;;;;;;3.25;1.05;;;13.00;99.90;;;;;;4780539;30;20414;-88
2022/05/13 20:58:04;;;;;;;10.13;1.45;;;13.10;99.90;;;;;;4797013;29;20082;-88
2022/05/13 21:00:30;;;;;;;7.45;2.15;;;13.00;99.90;;;;;;4774107;30;20086;-87
2022/05/13 21:02:56;;;;;;;4.20;1.48;;;13.30;99.90;;;;;;4780119;29;20066;-89
2022/05/13 21:05:23;;;;;;;9.23;1.30;;;13.10;99.90;;;;;;4773339;30;20059;-88
2022/05/13 21:07:51;;;;;;;3.85;1.30;;;13.00;99.90;;;;;;4788114;30;20059;-90
2022/05/13 21:10:26;;;;;;;5.65;1.48;;;13.10;99.90;;;;;;4757991;30;20066;-89